Terminal Aerodrome Forecast
Issued by NWS Brownsville, TX

Home | Current Version | Previous Version | Text Only | Print | Product List | Glossary On
Versions: 1 2 3 4 5 6 7 8 9 10 11 12 13 14
297
FTUS44 KBRO 171728
TAFMFE
TAF
KMFE 171728Z 1718/1818 01009KT P6SM OVC060
     FM180400 34006KT P6SM BKN025
     FM181200 33007KT P6SM -DZ OVC015
     FM181500 33009KT 6SM -DZ BR OVC010=

USA.gov is the U.S. government's official web portal to all federal, state and local government web resources and services.